Time;durP1;ratioP1;P1;durP2;ratioP2;P2;SDS_P1;SDS_P2;PMS_P1;PMS_P2;Temp;Humidity;BMP_temperature;BMP_pressure;BME280_temperature;BME280_humidity;BME280_pressure;Samples;Min_cycle;Max_cycle;Signal;HPM_P1;HPM_P2
2022/05/29 00:01:51;;;;;;;9.25;3.03;;;9.10;99.90;;;;;;5028208;28;20033;-45
2022/05/29 00:04:17;;;;;;;11.35;3.83;;;9.10;99.90;;;;;;5028685;28;20064;-45
2022/05/29 00:06:46;;;;;;;12.13;2.83;;;9.20;99.90;;;;;;5028743;28;20412;-44
2022/05/29 00:09:18;;;;;;;14.75;3.70;;;9.10;99.90;;;;;;5028671;28;20056;-45
2022/05/29 00:11:44;;;;;;;11.57;3.30;;;9.00;99.90;;;;;;5028522;28;20042;-44
2022/05/29 00:14:10;;;;;;;13.77;4.35;;;9.70;99.90;;;;;;5028002;28;20152;-44
2022/05/29 00:16:36;;;;;;;16.27;4.28;;;9.10;99.90;;;;;;5028631;28;20132;-45
2022/05/29 00:19:01;;;;;;;13.60;2.92;;;9.00;99.90;;;;;;5030728;28;20124;-45
2022/05/29 00:21:32;;;;;;;9.25;2.95;;;9.60;99.90;;;;;;5031728;28;20033;-44
2022/05/29 00:23:58;;;;;;;14.57;3.22;;;9.60;99.90;;;;;;5031968;28;20045;-44
2022/05/29 00:26:24;;;;;;;14.77;3.47;;;8.70;99.90;;;;;;5031640;28;20052;-44
2022/05/29 00:28:49;;;;;;;11.50;3.00;;;9.50;99.90;;;;;;5031988;28;20034;-44
2022/05/29 00:31:15;;;;;;;13.10;3.80;;;8.70;99.90;;;;;;5031590;28;20034;-43
2022/05/29 00:33:41;;;;;;;11.80;3.35;;;8.50;99.90;;;;;;5031872;28;20564;-44
2022/05/29 00:36:12;;;;;;;13.23;3.38;;;9.30;99.90;;;;;;5031735;28;20048;-45
2022/05/29 00:38:40;;;;;;;12.53;3.23;;;8.50;99.90;;;;;;5032205;28;20116;-45
2022/05/29 00:41:24;;;;;;;14.15;3.63;;;9.40;99.90;;;;;;5031657;28;20049;-45
2022/05/29 00:44:12;;;;;;;14.32;3.85;;;8.40;99.90;;;;;;5032002;28;20045;-44
2022/05/29 00:46:42;;;;;;;9.65;3.42;;;8.20;99.90;;;;;;5031698;28;20571;-46
2022/05/29 00:49:10;;;;;;;11.18;3.35;;;8.00;99.90;;;;;;5031327;28;20381;-45
2022/05/29 00:51:43;;;;;;;16.90;4.10;;;7.90;99.90;;;;;;5031209;28;20400;-44
2022/05/29 00:54:09;;;;;;;12.68;3.50;;;8.10;99.90;;;;;;5031058;28;20493;-44
2022/05/29 00:56:37;;;;;;;13.95;4.38;;;8.10;99.90;;;;;;5031427;28;20040;-44
2022/05/29 00:59:06;;;;;;;11.63;3.72;;;7.90;99.90;;;;;;5031397;28;20065;-44
2022/05/29 01:01:31;;;;;;;13.55;4.00;;;8.90;99.90;;;;;;5031127;28;20382;-45
2022/05/29 01:03:57;;;;;;;16.10;3.88;;;8.10;99.90;;;;;;5030785;28;20044;-45
2022/05/29 01:06:23;;;;;;;12.77;4.72;;;8.30;99.90;;;;;;5031252;28;20054;-44
2022/05/29 01:08:49;;;;;;;15.30;4.30;;;9.20;99.90;;;;;;5031201;28;20048;-45
2022/05/29 01:11:23;;;;;;;16.17;3.85;;;8.30;99.90;;;;;;5011931;28;20378;-44
2022/05/29 01:13:54;;;;;;;14.15;3.72;;;8.40;99.90;;;;;;5011273;28;20397;-44
2022/05/29 01:16:40;;;;;;;12.85;3.63;;;8.20;99.90;;;;;;5010920;28;20045;-44
2022/05/29 01:19:37;;;;;;;11.73;3.35;;;8.50;99.90;;;;;;5010882;28;20489;-45
2022/05/29 01:22:06;;;;;;;17.95;3.70;;;8.50;99.90;;;;;;5010861;28;20084;-47
2022/05/29 01:25:10;;;;;;;12.48;2.80;;;8.40;99.90;;;;;;5011200;28;20057;-43
2022/05/29 01:28:08;;;;;;;16.00;3.40;;;8.30;99.90;;;;;;5010526;28;20042;-46
2022/05/29 01:30:55;;;;;;;10.85;2.97;;;8.40;99.90;;;;;;5010688;28;20050;-45
2022/05/29 01:33:52;;;;;;;12.18;3.28;;;8.20;99.90;;;;;;5010434;28;20072;-45
2022/05/29 01:36:35;;;;;;;14.43;3.20;;;8.20;99.90;;;;;;5010635;28;20085;-47
2022/05/29 01:39:22;;;;;;;11.43;3.50;;;8.20;99.90;;;;;;5010548;28;20042;-44
2022/05/29 01:42:11;;;;;;;10.57;3.03;;;8.60;99.90;;;;;;5010792;28;20057;-44
2022/05/29 01:44:55;;;;;;;13.07;3.75;;;8.20;99.90;;;;;;5010572;28;20050;-45
2022/05/29 01:48:01;;;;;;;14.60;5.25;;;8.30;99.90;;;;;;5010459;28;20052;-45
2022/05/29 01:50:34;;;;;;;11.50;3.80;;;8.20;99.90;;;;;;4991232;28;20057;-45
2022/05/29 01:53:07;;;;;;;10.48;3.70;;;8.30;99.90;;;;;;5009835;28;20058;-44
2022/05/29 01:55:41;;;;;;;11.23;3.35;;;8.30;99.90;;;;;;5010581;28;20394;-49
2022/05/29 01:58:12;;;;;;;17.38;3.60;;;8.20;99.90;;;;;;5010136;28;20085;-45
2022/05/29 02:00:38;;;;;;;12.52;3.38;;;8.80;99.90;;;;;;5010467;28;20049;-46
2022/05/29 02:03:16;;;;;;;12.45;3.33;;;8.30;99.90;;;;;;5010369;28;20038;-46
2022/05/29 02:05:54;;;;;;;11.25;3.55;;;8.60;99.90;;;;;;5010224;28;20065;-44
2022/05/29 02:08:54;;;;;;;12.50;3.42;;;8.30;99.90;;;;;;5010099;28;20042;-43
2022/05/29 02:11:23;;;;;;;14.13;3.38;;;8.50;99.90;;;;;;5029024;28;20622;-44
2022/05/29 02:14:06;;;;;;;15.07;4.55;;;8.30;99.90;;;;;;5030330;28;20037;-44
2022/05/29 02:16:47;;;;;;;13.00;3.38;;;8.40;99.90;;;;;;5030703;28;20038;-44
2022/05/29 02:19:40;;;;;;;12.50;3.42;;;8.30;99.90;;;;;;5029843;28;20042;-47
2022/05/29 02:22:12;;;;;;;12.55;2.70;;;8.20;99.90;;;;;;5029871;28;20121;-45
2022/05/29 02:24:52;;;;;;;14.50;3.58;;;8.20;99.90;;;;;;5029961;28;20500;-46
2022/05/29 02:27:44;;;;;;;14.45;3.50;;;8.20;99.90;;;;;;5030045;28;20077;-47
2022/05/29 02:30:10;;;;;;;13.35;3.22;;;8.50;99.90;;;;;;5029842;28;20075;-46
2022/05/29 02:32:49;;;;;;;12.10;3.65;;;8.40;99.90;;;;;;5029982;28;20055;-45
2022/05/29 02:35:38;;;;;;;13.60;3.25;;;8.30;99.90;;;;;;5029711;28;20129;-47
2022/05/29 02:38:09;;;;;;;16.65;3.45;;;8.40;99.90;;;;;;5028862;28;20407;-47
2022/05/29 02:40:45;;;;;;;15.57;3.75;;;8.40;99.90;;;;;;5027469;28;20435;-49
2022/05/29 02:43:36;;;;;;;12.55;3.70;;;9.20;99.90;;;;;;5029395;28;20037;-45
2022/05/29 02:46:40;;;;;;;18.65;4.45;;;8.40;99.90;;;;;;5029962;28;20049;-46
2022/05/29 02:49:20;;;;;;;15.45;3.33;;;8.40;99.90;;;;;;5029530;28;20046;-44
2022/05/29 02:51:59;;;;;;;11.65;3.47;;;8.20;99.90;;;;;;5029706;28;20099;-44
2022/05/29 02:54:28;;;;;;;10.77;3.67;;;8.20;99.90;;;;;;5029025;28;20049;-44
2022/05/29 02:56:59;;;;;;;17.52;4.13;;;8.30;99.90;;;;;;5027814;28;20459;-44
2022/05/29 02:59:36;;;;;;;11.90;3.70;;;8.10;99.90;;;;;;5029274;28;20069;-44
2022/05/29 03:02:22;;;;;;;15.73;3.83;;;8.20;99.90;;;;;;5029489;28;20114;-44
2022/05/29 03:05:07;;;;;;;16.42;3.88;;;8.30;99.90;;;;;;5029030;28;20067;-44
2022/05/29 03:08:03;;;;;;;12.05;3.40;;;8.30;99.90;;;;;;5029348;28;20053;-43
2022/05/29 03:10:41;;;;;;;16.10;3.63;;;8.40;99.90;;;;;;5016817;28;20464;-45
2022/05/29 03:13:08;;;;;;;11.20;3.80;;;8.40;99.90;;;;;;5010055;28;20585;-44
2022/05/29 03:15:58;;;;;;;15.25;4.20;;;8.40;99.90;;;;;;5009057;28;20464;-44
2022/05/29 03:18:37;;;;;;;20.85;4.43;;;8.40;99.90;;;;;;5009461;28;20409;-43
2022/05/29 03:21:22;;;;;;;14.45;4.63;;;8.40;99.90;;;;;;5009712;28;20084;-44
2022/05/29 03:23:57;;;;;;;15.43;4.40;;;8.50;99.90;;;;;;5008795;28;20108;-43
2022/05/29 03:26:40;;;;;;;18.67;5.20;;;8.40;99.90;;;;;;5009879;28;20354;-44
2022/05/29 03:29:08;;;;;;;;;;;8.50;99.90;;;;;;5009776;28;20497;-44
2022/05/29 03:31:36;;;;;;;16.48;3.83;;;8.40;99.90;;;;;;5009159;28;19921;-45
2022/05/29 03:34:02;;;;;;;17.65;4.60;;;8.40;99.90;;;;;;5009335;28;20050;-44
2022/05/29 03:36:29;;;;;;;16.23;4.65;;;8.40;99.90;;;;;;5009381;28;20454;-45
2022/05/29 03:38:55;;;;;;;20.90;4.13;;;8.50;99.90;;;;;;5009568;28;20060;-44
2022/05/29 03:41:46;;;;;;;13.80;4.22;;;8.50;99.90;;;;;;5009662;28;20121;-44
2022/05/29 03:44:13;;;;;;;15.60;4.10;;;8.40;99.90;;;;;;5009463;28;20045;-44
2022/05/29 03:46:39;;;;;;;12.75;4.20;;;8.30;99.90;;;;;;5009367;28;20488;-44
2022/05/29 03:49:07;;;;;;;12.18;4.03;;;8.50;99.90;;;;;;5008138;28;20382;-44
2022/05/29 03:51:33;;;;;;;14.07;3.78;;;8.80;99.90;;;;;;5009618;28;20045;-44
2022/05/29 03:54:00;;;;;;;15.07;3.90;;;8.60;99.90;;;;;;5011710;28;20485;-43
2022/05/29 03:56:26;;;;;;;18.27;3.83;;;9.40;99.90;;;;;;5012921;28;20089;-44
2022/05/29 03:58:51;;;;;;;20.30;4.55;;;9.60;99.90;;;;;;5012939;28;20042;-44
2022/05/29 04:01:17;;;;;;;16.42;4.43;;;8.60;99.90;;;;;;5013159;28;20042;-44
2022/05/29 04:03:43;;;;;;;19.70;4.50;;;8.60;99.90;;;;;;5013072;28;20045;-44
2022/05/29 04:06:08;;;;;;;13.23;4.70;;;9.50;99.90;;;;;;5013227;28;20533;-44
2022/05/29 04:14:04;;;;;;;18.35;4.50;;;9.50;99.90;;;;;;5032669;28;20408;-43
2022/05/29 04:16:30;;;;;;;18.92;4.32;;;8.90;99.90;;;;;;5032733;28;20122;-44
2022/05/29 04:18:55;;;;;;;14.45;3.70;;;8.90;99.90;;;;;;5032493;28;20527;-44
2022/05/29 04:21:22;;;;;;;13.65;3.38;;;8.80;99.90;;;;;;5032477;28;20140;-44
2022/05/29 04:23:47;;;;;;;14.50;3.33;;;8.80;99.90;;;;;;5032631;28;20124;-44
2022/05/29 04:26:14;;;;;;;17.83;3.80;;;8.70;99.90;;;;;;5032475;28;20175;-44
2022/05/29 04:28:40;;;;;;;13.15;3.75;;;8.90;99.90;;;;;;5032607;28;20069;-43
2022/05/29 04:31:06;;;;;;;13.95;3.78;;;9.30;99.90;;;;;;5032638;28;20396;-44
2022/05/29 04:33:33;;;;;;;19.65;4.10;;;8.80;99.90;;;;;;5032664;28;20046;-44
2022/05/29 04:35:58;;;;;;;15.20;2.72;;;8.80;99.90;;;;;;5032817;28;20037;-43
2022/05/29 04:38:25;;;;;;;16.40;3.15;;;8.90;99.90;;;;;;5032634;28;20041;-43
2022/05/29 04:40:51;;;;;;;13.45;3.42;;;9.20;99.90;;;;;;5032645;28;20144;-44
2022/05/29 04:43:17;;;;;;;14.70;3.10;;;9.00;99.90;;;;;;5032776;28;20116;-44
2022/05/29 04:45:45;;;;;;;10.55;2.58;;;9.10;99.90;;;;;;5032586;28;20049;-43
2022/05/29 04:48:12;;;;;;;11.95;3.15;;;9.00;99.90;;;;;;5032432;28;20048;-44
2022/05/29 04:50:38;;;;;;;13.00;2.40;;;9.30;99.90;;;;;;5032503;28;20042;-44
2022/05/29 04:53:05;;;;;;;12.73;3.00;;;9.10;99.90;;;;;;5032649;28;20049;-43
2022/05/29 04:55:31;;;;;;;13.10;2.70;;;9.20;99.90;;;;;;5032180;28;20046;-44
2022/05/29 04:57:57;;;;;;;14.25;2.83;;;9.50;99.90;;;;;;5032276;28;20128;-44
2022/05/29 05:00:23;;;;;;;13.98;4.38;;;9.10;99.90;;;;;;5032382;28;20168;-44
2022/05/29 05:02:48;;;;;;;11.98;2.88;;;9.30;99.90;;;;;;5031952;28;20400;-45
2022/05/29 05:05:15;;;;;;;9.98;2.55;;;9.20;99.90;;;;;;5031607;28;20445;-44
2022/05/29 05:07:41;;;;;;;22.25;3.85;;;9.40;99.90;;;;;;5032482;28;20049;-45
2022/05/29 05:10:11;;;;;;;16.45;2.53;;;9.40;99.90;;;;;;5021088;28;20085;-45
2022/05/29 05:12:40;;;;;;;14.80;3.15;;;9.50;99.90;;;;;;5012396;28;20115;-46
2022/05/29 05:15:08;;;;;;;10.57;2.17;;;9.50;99.90;;;;;;5012035;28;20064;-43
2022/05/29 05:17:34;;;;;;;13.30;2.63;;;9.50;99.90;;;;;;5011697;28;20132;-43
2022/05/29 05:20:00;;;;;;;10.93;2.17;;;9.60;99.90;;;;;;5012141;28;20121;-43
2022/05/29 05:22:25;;;;;;;12.48;2.33;;;10.00;99.90;;;;;;5012062;28;20512;-44
2022/05/29 05:24:51;;;;;;;11.40;2.63;;;9.50;99.90;;;;;;5012269;28;20053;-43
2022/05/29 05:27:17;;;;;;;11.75;2.55;;;9.60;99.90;;;;;;5012263;28;20119;-43
2022/05/29 05:29:43;;;;;;;15.82;2.65;;;9.50;99.90;;;;;;5012208;28;20168;-45
2022/05/29 05:32:09;;;;;;;9.77;1.60;;;9.60;99.90;;;;;;5011650;28;20096;-44
2022/05/29 05:34:35;;;;;;;14.35;1.90;;;9.40;99.90;;;;;;5011655;28;20250;-45
2022/05/29 05:37:00;;;;;;;13.65;2.60;;;9.60;99.90;;;;;;5011518;28;20038;-44
2022/05/29 05:39:26;;;;;;;13.73;2.47;;;9.60;99.90;;;;;;5011527;28;20126;-44
2022/05/29 05:41:52;;;;;;;14.85;2.25;;;9.70;99.90;;;;;;5011256;28;20111;-44
2022/05/29 05:44:18;;;;;;;16.63;2.33;;;9.70;99.90;;;;;;5011533;28;20042;-44
2022/05/29 05:46:45;;;;;;;14.30;3.15;;;9.80;99.90;;;;;;5011244;28;20034;-44
2022/05/29 05:49:12;;;;;;;13.45;2.20;;;10.00;99.90;;;;;;5011342;28;20033;-43
2022/05/29 05:51:38;;;;;;;12.07;3.05;;;10.10;99.90;;;;;;5011333;28;20041;-44
2022/05/29 05:54:03;;;;;;;14.63;2.67;;;10.40;99.90;;;;;;5011472;28;20064;-45
2022/05/29 05:56:29;;;;;;;12.85;2.08;;;10.30;99.90;;;;;;5011314;28;20042;-44
2022/05/29 05:58:55;;;;;;;11.98;2.22;;;10.40;99.90;;;;;;5011214;28;20099;-44
2022/05/29 06:01:21;;;;;;;9.98;2.53;;;10.40;99.90;;;;;;5011214;28;20406;-44
2022/05/29 06:03:47;;;;;;;18.73;2.00;;;10.60;99.90;;;;;;5011382;28;20042;-44
2022/05/29 06:06:13;;;;;;;12.45;2.60;;;10.70;99.90;;;;;;5010874;28;20143;-44
2022/05/29 06:08:39;;;;;;;11.43;2.28;;;10.60;99.90;;;;;;5011138;28;20069;-44
2022/05/29 06:11:05;;;;;;;15.98;2.58;;;10.70;99.90;;;;;;5028507;28;20080;-44
2022/05/29 06:13:31;;;;;;;12.38;2.40;;;10.80;99.90;;;;;;5031245;28;20041;-43
2022/05/29 06:16:01;;;;;;;10.55;2.08;;;11.10;99.90;;;;;;5030402;28;20050;-43
2022/05/29 06:18:27;;;;;;;13.75;1.70;;;11.60;99.90;;;;;;5031097;28;20617;-43
2022/05/29 06:21:02;;;;;;;13.88;2.10;;;10.80;99.90;;;;;;5031434;28;20045;-44
2022/05/29 06:23:28;;;;;;;12.02;1.70;;;10.70;99.90;;;;;;5030983;28;20041;-44
2022/05/29 06:25:54;;;;;;;10.43;1.50;;;10.60;99.90;;;;;;5030317;28;20073;-44
2022/05/29 06:28:20;;;;;;;13.52;1.85;;;11.00;99.90;;;;;;5030563;28;20146;-44
2022/05/29 06:30:46;;;;;;;17.80;2.42;;;10.70;99.90;;;;;;5030321;28;20475;-44
2022/05/29 06:33:12;;;;;;;15.55;3.17;;;10.70;99.90;;;;;;5030821;28;20057;-45
2022/05/29 06:35:38;;;;;;;15.35;1.75;;;10.60;99.90;;;;;;5031002;28;20041;-43
2022/05/29 06:38:04;;;;;;;8.77;2.13;;;10.70;99.90;;;;;;5030138;28;20394;-44
2022/05/29 06:40:29;;;;;;;14.77;1.92;;;10.90;99.90;;;;;;5030444;28;20030;-44
2022/05/29 06:42:55;;;;;;;11.43;1.50;;;11.40;99.90;;;;;;5030200;28;20049;-43
2022/05/29 06:45:21;;;;;;;7.28;1.48;;;11.00;99.90;;;;;;5028844;28;20045;-44
2022/05/29 06:47:48;;;;;;;11.45;1.42;;;11.20;99.90;;;;;;5029722;28;20128;-44
2022/05/29 06:50:14;;;;;;;9.50;1.80;;;11.40;99.90;;;;;;5030164;28;20057;-43
2022/05/29 06:52:39;;;;;;;15.82;2.80;;;11.70;99.90;;;;;;5029854;28;20045;-43
2022/05/29 06:55:07;;;;;;;15.27;2.17;;;11.60;99.90;;;;;;5029810;28;20037;-45
2022/05/29 06:57:43;;;;;;;15.40;1.85;;;11.50;99.90;;;;;;5029953;28;20073;-44
2022/05/29 07:08:40;;;;;;;12.35;1.77;;;12.30;99.90;;;;;;5030071;28;20053;-44
2022/05/29 07:11:10;;;;;;;7.82;1.52;;;11.90;99.90;;;;;;5011885;28;20042;-44
2022/05/29 07:13:37;;;;;;;12.38;1.92;;;11.90;99.90;;;;;;5010518;28;20038;-44
2022/05/29 07:16:03;;;;;;;6.70;1.20;;;11.70;99.90;;;;;;5008908;28;20058;-44
2022/05/29 07:18:29;;;;;;;9.52;1.00;;;11.80;99.90;;;;;;5013799;28;20439;-44
2022/05/29 07:20:59;;;;;;;12.55;2.33;;;11.80;99.90;;;;;;5020311;28;20041;-44
2022/05/29 07:23:24;;;;;;;15.80;1.38;;;11.70;99.90;;;;;;5019589;28;20065;-44
2022/05/29 07:25:51;;;;;;;14.23;1.67;;;12.50;99.90;;;;;;5018631;28;20493;-43
2022/05/29 07:28:17;;;;;;;9.35;1.92;;;11.80;99.90;;;;;;5023390;28;20044;-43
2022/05/29 07:30:42;;;;;;;12.25;1.50;;;11.70;99.90;;;;;;5023948;28;20041;-43
2022/05/29 07:33:08;;;;;;;14.13;1.75;;;11.70;99.90;;;;;;5022715;28;20373;-43
2022/05/29 07:35:33;;;;;;;15.48;1.50;;;11.40;99.90;;;;;;5024625;28;20064;-44
2022/05/29 07:38:01;;;;;;;10.93;1.80;;;12.30;99.90;;;;;;5023034;28;20056;-43
2022/05/29 07:40:26;;;;;;;7.10;1.13;;;12.00;99.90;;;;;;5023060;28;20042;-44
2022/05/29 07:45:37;;;;;;;7.55;1.20;;;11.80;99.90;;;;;;5021867;28;20052;-43
2022/05/29 07:48:03;;;;;;;7.53;0.90;;;11.80;99.90;;;;;;5023196;28;20038;-43
2022/05/29 07:50:28;;;;;;;10.00;1.48;;;11.90;99.90;;;;;;5022614;28;20037;-43
2022/05/29 07:52:54;;;;;;;8.48;1.02;;;12.00;99.90;;;;;;5024401;28;20037;-45
2022/05/29 07:55:21;;;;;;;5.35;0.73;;;13.50;99.90;;;;;;5022813;28;20613;-44
2022/05/29 07:57:47;;;;;;;9.60;0.60;;;12.30;99.90;;;;;;5022685;28;20114;-43
2022/05/29 08:00:16;;;;;;;7.05;0.82;;;12.50;99.90;;;;;;5023686;28;20484;-44
2022/05/29 08:02:42;;;;;;;4.82;0.70;;;12.60;99.90;;;;;;5022593;28;20037;-43
2022/05/29 08:05:10;;;;;;;7.15;1.35;;;12.60;99.90;;;;;;5021515;28;20053;-44
2022/05/29 08:07:36;;;;;;;8.20;0.68;;;12.80;99.90;;;;;;5023811;28;20046;-44
2022/05/29 08:10:03;;;;;;;8.80;0.85;;;12.90;99.90;;;;;;5021388;28;20393;-44
2022/05/29 08:12:28;;;;;;;5.15;0.75;;;12.90;99.90;;;;;;5021654;28;20045;-44
2022/05/29 08:14:54;;;;;;;4.35;0.70;;;13.50;99.90;;;;;;5023647;28;20042;-43
2022/05/29 08:17:20;;;;;;;4.97;0.47;;;12.70;99.90;;;;;;5022167;28;20042;-44
2022/05/29 08:19:45;;;;;;;5.90;0.63;;;12.70;99.90;;;;;;5031025;28;20037;-44
2022/05/29 08:22:11;;;;;;;3.22;0.50;;;12.60;99.90;;;;;;5032945;28;20556;-44
2022/05/29 08:33:18;;;;;;;5.75;0.50;;;13.20;99.90;;;;;;5032071;28;19928;-47
2022/05/29 08:36:06;;;;;;;8.07;0.73;;;13.40;99.90;;;;;;5032352;28;20061;-49
2022/05/29 08:38:34;;;;;;;15.32;1.15;;;13.60;99.90;;;;;;5030657;28;20615;-48
2022/05/29 08:41:03;;;;;;;5.22;0.60;;;13.80;99.90;;;;;;5026243;28;20065;-44
2022/05/29 08:43:38;;;;;;;7.30;1.15;;;14.20;99.90;;;;;;5020040;28;20030;-44
2022/05/29 08:46:17;;;;;;;5.55;0.40;;;14.30;99.90;;;;;;5021574;28;20052;-45
2022/05/29 08:48:43;;;;;;;7.78;0.50;;;15.20;99.90;;;;;;5018003;28;20393;-46
2022/05/29 08:51:14;;;;;;;8.82;0.68;;;14.40;99.90;;;;;;5016745;28;20054;-45
2022/05/29 08:54:02;;;;;;;5.82;1.08;;;14.30;99.90;;;;;;5020459;28;20041;-45
2022/05/29 08:56:35;;;;;;;5.78;0.85;;;14.40;99.90;;;;;;5024242;28;20038;-44
2022/05/29 08:59:28;;;;;;;2.40;0.20;;;14.40;99.90;;;;;;5020477;28;20476;-45
2022/05/29 09:02:15;;;;;;;5.78;0.30;;;14.50;99.90;;;;;;5021875;28;20129;-45
2022/05/29 09:04:47;;;;;;;2.72;0.52;;;14.50;99.90;;;;;;5019232;28;20410;-44
2022/05/29 09:07:18;;;;;;;3.70;0.40;;;14.50;99.90;;;;;;5017794;28;20373;-44
2022/05/29 09:09:54;;;;;;;3.47;0.60;;;14.40;99.90;;;;;;5021121;28;20087;-45
2022/05/29 09:12:53;;;;;;;4.80;0.50;;;14.30;99.90;;;;;;5019319;28;20806;-46
2022/05/29 09:15:36;;;;;;;5.85;0.70;;;13.90;99.90;;;;;;5018987;28;20045;-45
2022/05/29 09:18:11;;;;;;;2.30;0.30;;;13.70;99.90;;;;;;5022356;28;20100;-44
2022/05/29 09:20:57;;;;;;;5.88;0.60;;;13.70;99.90;;;;;;5016488;28;20081;-45
2022/05/29 09:23:31;;;;;;;9.98;1.58;;;13.80;99.90;;;;;;5027378;28;20041;-45
2022/05/29 09:25:57;;;;;;;5.63;0.60;;;13.90;99.90;;;;;;5024344;28;20045;-44
2022/05/29 09:28:34;;;;;;;4.47;0.52;;;14.10;99.90;;;;;;5021969;28;20041;-44
2022/05/29 09:31:14;;;;;;;7.75;0.60;;;14.30;99.90;;;;;;5019877;28;20103;-44
2022/05/29 09:33:41;;;;;;;10.73;0.70;;;14.60;99.90;;;;;;5021437;28;20044;-45
2022/05/29 09:36:30;;;;;;;4.97;1.15;;;14.90;99.90;;;;;;5020293;28;20053;-44
2022/05/29 09:39:08;;;;;;;6.95;0.75;;;15.20;99.90;;;;;;5021460;28;20038;-44
2022/05/29 09:41:43;;;;;;;3.63;0.30;;;15.50;99.90;;;;;;5019026;28;20065;-44
2022/05/29 09:44:18;;;;;;;4.45;0.38;;;15.80;99.90;;;;;;5021160;28;20044;-45
2022/05/29 09:46:52;;;;;;;5.15;0.85;;;16.00;99.90;;;;;;5020627;28;20038;-44
2022/05/29 09:49:42;;;;;;;5.63;0.70;;;16.00;99.90;;;;;;5015484;28;20037;-44
2022/05/29 09:52:13;;;;;;;4.78;0.40;;;16.10;99.90;;;;;;5011020;28;20048;-44
2022/05/29 09:54:50;;;;;;;1.73;0.30;;;16.20;99.90;;;;;;5017258;28;20067;-44
2022/05/29 09:57:26;;;;;;;4.90;0.32;;;16.20;99.60;;;;;;5010817;28;20065;-44
2022/05/29 10:00:08;;;;;;;5.35;0.77;;;16.00;97.50;;;;;;5011123;28;20037;-44
2022/05/29 10:02:39;;;;;;;6.03;0.63;;;15.70;95.30;;;;;;5010249;28;20116;-44
2022/05/29 10:05:08;;;;;;;3.55;0.20;;;15.50;96.40;;;;;;5010504;28;20501;-45
2022/05/29 10:07:41;;;;;;;6.85;0.75;;;15.00;95.20;;;;;;5011069;28;20073;-44
2022/05/29 10:10:08;;;;;;;6.00;0.50;;;14.80;95.70;;;;;;5020161;28;20087;-45
2022/05/29 10:12:44;;;;;;;5.32;0.73;;;14.60;97.10;;;;;;5028085;28;20064;-45
2022/05/29 10:15:30;;;;;;;5.95;0.60;;;14.60;97.40;;;;;;5009173;28;20373;-45
2022/05/29 10:18:01;;;;;;;6.35;0.50;;;14.70;99.00;;;;;;5002298;28;20050;-45
2022/05/29 10:20:38;;;;;;;4.38;0.75;;;14.80;98.00;;;;;;5008503;28;20382;-45
2022/05/29 10:23:11;;;;;;;8.40;0.60;;;15.00;98.10;;;;;;5010587;28;20128;-44
2022/05/29 10:25:42;;;;;;;;;;;15.30;97.70;;;;;;5010143;28;20046;-45
2022/05/29 10:28:15;;;;;;;4.30;0.50;;;15.60;98.80;;;;;;5010064;28;20296;-44
2022/05/29 10:30:55;;;;;;;6.07;0.95;;;15.90;97.40;;;;;;5008297;28;20056;-45
2022/05/29 10:33:24;;;;;;;5.65;0.50;;;16.20;96.80;;;;;;5009562;28;20041;-44
2022/05/29 10:35:55;;;;;;;5.13;0.60;;;16.40;96.30;;;;;;5009144;28;20108;-44
2022/05/29 10:38:22;;;;;;;5.82;0.60;;;16.50;96.00;;;;;;5009710;28;20041;-45
2022/05/29 10:40:50;;;;;;;6.47;0.43;;;16.60;95.70;;;;;;5009812;28;20501;-44
2022/05/29 10:43:36;;;;;;;8.25;1.10;;;16.90;95.70;;;;;;5009731;28;20113;-45
2022/05/29 10:46:20;;;;;;;4.63;0.47;;;17.20;93.30;;;;;;5019733;28;20044;-45
2022/05/29 10:49:26;;;;;;;3.85;0.40;;;17.50;92.50;;;;;;5025861;28;20049;-43
2022/05/29 10:52:01;;;;;;;8.23;0.35;;;17.50;91.40;;;;;;5027919;28;20048;-44
2022/05/29 10:54:51;;;;;;;5.40;0.50;;;17.30;91.50;;;;;;5030159;28;20061;-45
2022/05/29 10:57:22;;;;;;;5.05;0.50;;;17.00;91.60;;;;;;5018595;28;20041;-45
2022/05/29 11:00:10;;;;;;;5.00;0.40;;;16.80;91.40;;;;;;5021302;28;20178;-44
2022/05/29 11:03:19;;;;;;;6.32;0.30;;;16.60;91.30;;;;;;5020061;28;20041;-44
2022/05/29 11:06:06;;;;;;;7.13;0.70;;;16.40;90.80;;;;;;5020093;28;20061;-43
2022/05/29 11:09:11;;;;;;;4.30;0.68;;;16.30;90.90;;;;;;5021252;28;20045;-44
2022/05/29 11:12:01;;;;;;;6.88;0.57;;;16.20;90.20;;;;;;5009748;28;20481;-45
2022/05/29 11:14:54;;;;;;;10.23;1.25;;;16.20;91.50;;;;;;5010069;28;20056;-44
2022/05/29 11:17:27;;;;;;;9.02;0.90;;;16.30;91.20;;;;;;5010354;28;20034;-44
2022/05/29 11:20:15;;;;;;;10.77;0.75;;;16.50;90.80;;;;;;5010197;28;20045;-43
2022/05/29 11:23:19;;;;;;;5.47;1.42;;;16.60;91.40;;;;;;5019443;28;20038;-44
2022/05/29 11:26:06;;;;;;;5.28;0.50;;;16.60;90.30;;;;;;5017911;28;20619;-43
2022/05/29 11:29:01;;;;;;;7.05;0.68;;;16.50;90.50;;;;;;5017471;28;20041;-44
2022/05/29 11:31:51;;;;;;;4.07;0.45;;;16.40;89.30;;;;;;5018975;28;20050;-44
2022/05/29 11:34:58;;;;;;;3.65;0.50;;;16.30;90.10;;;;;;5010281;28;20049;-45
2022/05/29 11:37:27;;;;;;;5.25;0.68;;;16.10;88.90;;;;;;5010193;28;20042;-44
2022/05/29 11:40:22;;;;;;;6.63;0.30;;;15.80;90.00;;;;;;5009866;28;20042;-44
2022/05/29 11:43:19;;;;;;;4.88;0.50;;;15.50;90.60;;;;;;5010156;28;20046;-44
2022/05/29 11:51:52;;;;;;;7.53;0.65;;;14.90;92.50;;;;;;5009547;28;20160;-45
2022/05/29 11:54:37;;;;;;;6.35;0.98;;;15.10;93.10;;;;;;5008181;28;20504;-45
2022/05/29 11:57:05;;;;;;;4.03;0.55;;;15.30;92.80;;;;;;5008021;28;20087;-44
2022/05/29 11:59:44;;;;;;;6.03;0.55;;;16.00;92.40;;;;;;5007945;28;20034;-47
2022/05/29 12:02:22;;;;;;;7.10;0.52;;;16.00;91.40;;;;;;5008172;28;20481;-45
2022/05/29 12:05:14;;;;;;;7.03;0.63;;;16.40;91.50;;;;;;5007948;28;20070;-45
2022/05/29 12:07:53;;;;;;;8.85;0.82;;;16.50;91.30;;;;;;5008237;28;20493;-44
2022/05/29 12:10:23;;;;;;;5.20;0.52;;;16.50;91.20;;;;;;5019961;28;20049;-44
2022/05/29 12:12:56;;;;;;;6.22;0.50;;;16.60;90.50;;;;;;5028009;28;20107;-45
2022/05/29 12:15:22;;;;;;;6.22;0.80;;;16.50;90.70;;;;;;5031819;28;20049;-45
2022/05/29 12:17:59;;;;;;;3.80;0.45;;;16.40;91.00;;;;;;5031870;28;20280;-45
2022/05/29 12:20:49;;;;;;;6.32;0.60;;;16.50;91.00;;;;;;5031996;28;20064;-44
2022/05/29 12:23:57;;;;;;;5.63;0.65;;;16.60;90.50;;;;;;5032329;28;20041;-44
2022/05/29 12:26:25;;;;;;;5.07;0.45;;;16.80;90.90;;;;;;5031433;28;20055;-44
2022/05/29 12:29:00;;;;;;;4.70;0.35;;;16.90;90.80;;;;;;5031077;28;20037;-45
2022/05/29 12:31:35;;;;;;;5.55;0.52;;;17.00;90.20;;;;;;5027618;28;20051;-45
2022/05/29 12:34:01;;;;;;;7.82;1.13;;;17.00;89.50;;;;;;5030111;28;20041;-45
2022/05/29 12:36:44;;;;;;;6.65;1.13;;;17.10;89.90;;;;;;5031670;28;20045;-46
2022/05/29 12:39:31;;;;;;;6.25;0.70;;;17.00;89.50;;;;;;5031800;28;20048;-45
2022/05/29 12:42:16;;;;;;;10.05;0.80;;;16.80;88.70;;;;;;5031596;28;20041;-44
2022/05/29 12:45:17;;;;;;;7.28;0.68;;;16.40;89.00;;;;;;5031560;28;20049;-44
2022/05/29 12:48:15;;;;;;;5.78;0.52;;;16.10;89.80;;;;;;5031097;28;20139;-44
2022/05/29 12:51:01;;;;;;;6.30;0.40;;;15.70;90.80;;;;;;5031719;28;20041;-45
2022/05/29 12:53:58;;;;;;;6.85;0.60;;;15.20;91.70;;;;;;5030939;28;20049;-45
2022/05/29 12:56:42;;;;;;;4.57;0.52;;;14.90;92.20;;;;;;5030920;28;20045;-47
2022/05/29 12:59:30;;;;;;;10.10;1.20;;;14.60;92.50;;;;;;4318658;28;10001477;-45
2022/05/29 13:02:33;;;;;;;5.63;0.88;;;14.30;93.30;;;;;;5009941;28;20049;-46
2022/05/29 13:05:31;;;;;;;7.90;0.80;;;14.00;94.70;;;;;;5012856;28;20709;-45
2022/05/29 13:08:24;;;;;;;7.03;0.40;;;13.70;94.70;;;;;;5028683;28;20056;-45
2022/05/29 13:10:52;;;;;;;4.40;0.57;;;13.60;96.20;;;;;;5020813;28;20054;-45
2022/05/29 13:13:20;;;;;;;6.55;0.52;;;13.60;96.20;;;;;;5019546;28;20034;-45
2022/05/29 13:15:47;;;;;;;4.60;0.63;;;14.00;96.30;;;;;;5020486;28;20092;-46
2022/05/29 13:21:06;;;;;;;8.32;0.60;;;14.00;95.80;;;;;;5020658;28;20053;-45
2022/05/29 13:23:34;;;;;;;10.93;4.10;;;13.90;95.40;;;;;;5017585;28;20041;-46
2022/05/29 13:26:00;;;;;;;8.30;1.63;;;13.70;95.80;;;;;;5018519;28;20049;-45
2022/05/29 13:29:07;;;;;;;6.55;0.85;;;13.50;96.50;;;;;;5021464;28;20041;-45
2022/05/29 13:32:11;;;;;;;7.88;3.42;;;13.50;97.30;;;;;;5016645;28;20045;-45
2022/05/29 13:34:37;;;;;;;7.60;1.02;;;13.50;98.30;;;;;;5018653;28;20049;-45
2022/05/29 13:37:05;;;;;;;3.63;0.85;;;13.80;98.70;;;;;;5017817;28;20034;-45
2022/05/29 13:39:51;;;;;;;5.68;0.40;;;14.10;98.90;;;;;;5018021;28;20120;-45
2022/05/29 13:42:28;;;;;;;5.00;0.73;;;14.50;97.50;;;;;;5018443;28;20455;-46
2022/05/29 13:44:54;;;;;;;8.10;0.77;;;14.80;96.10;;;;;;5018347;28;20040;-45
2022/05/29 13:47:20;;;;;;;8.32;1.02;;;15.10;94.60;;;;;;5018895;28;20045;-47
2022/05/29 13:50:10;;;;;;;6.25;0.65;;;15.40;94.40;;;;;;5017839;28;20474;-44
2022/05/29 13:52:46;;;;;;;9.60;0.90;;;15.70;94.00;;;;;;5018745;28;20439;-45
2022/05/29 13:55:25;;;;;;;9.00;0.75;;;15.80;92.10;;;;;;5019014;28;20098;-45
2022/05/29 14:03:58;;;;;;;5.70;0.95;;;15.90;91.30;;;;;;5022236;28;20053;-46